Time;durP1;ratioP1;P1;durP2;ratioP2;P2;SDS_P1;SDS_P2;PMS_P1;PMS_P2;Temp;Humidity;BMP_temperature;BMP_pressure;BME280_temperature;BME280_humidity;BME280_pressure;Samples;Min_cycle;Max_cycle;Signal;HPM_P1;HPM_P2
2021/01/01 00:00:50;;;;;;;72.00;45.38;;;2.30;92.40;;;;;;2057183;28;20037;-72
2021/01/01 00:01:53;;;;;;;70.60;45.65;;;2.30;92.80;;;;;;2057399;28;20031;-72
2021/01/01 00:02:54;;;;;;;75.13;46.88;;;2.30;92.40;;;;;;2057215;28;20023;-73
2021/01/01 00:03:55;;;;;;;73.93;45.80;;;2.30;92.40;;;;;;2057092;28;20030;-72
2021/01/01 00:04:55;;;;;;;73.25;46.85;;;2.30;92.40;;;;;;2056734;28;20037;-71
2021/01/01 00:05:56;;;;;;;74.57;46.08;;;2.30;92.40;;;;;;2056771;28;20030;-71
2021/01/01 00:06:58;;;;;;;76.68;46.65;;;2.30;92.50;;;;;;2063734;28;20060;-71
2021/01/01 00:07:59;;;;;;;72.15;44.75;;;2.30;92.50;;;;;;2064213;28;20049;-72
2021/01/01 00:09:00;;;;;;;73.88;44.72;;;2.30;92.50;;;;;;2056658;28;20054;-71
2021/01/01 00:10:01;;;;;;;84.20;50.78;;;2.30;92.50;;;;;;2056305;28;20443;-70
2021/01/01 00:11:02;;;;;;;83.63;49.50;;;2.30;92.50;;;;;;2056837;28;20134;-70
2021/01/01 00:12:03;;;;;;;81.22;49.63;;;2.30;92.50;;;;;;2056048;28;20526;-73
2021/01/01 00:13:03;;;;;;;89.25;51.97;;;2.30;92.50;;;;;;2056000;28;20030;-71
2021/01/01 00:14:04;;;;;;;98.38;57.85;;;2.30;92.40;;;;;;2055944;28;20035;-71
2021/01/01 00:15:06;;;;;;;95.00;56.38;;;2.30;92.40;;;;;;2056051;28;20121;-71
2021/01/01 00:16:10;;;;;;;119.60;68.60;;;2.30;92.40;;;;;;2056334;28;20034;-71
2021/01/01 00:17:10;;;;;;;113.85;65.72;;;2.30;92.40;;;;;;2056709;28;20027;-70
2021/01/01 00:18:11;;;;;;;106.13;63.60;;;2.30;92.40;;;;;;2055919;28;20038;-71
2021/01/01 00:19:12;;;;;;;110.03;64.55;;;2.30;92.40;;;;;;2056045;28;20471;-71
2021/01/01 00:20:14;;;;;;;100.22;60.45;;;2.30;92.40;;;;;;2056345;28;20520;-72
2021/01/01 00:21:14;;;;;;;98.75;60.40;;;2.30;92.40;;;;;;2048151;29;20571;-69
2021/01/01 00:22:15;;;;;;;99.53;59.03;;;2.30;92.40;;;;;;2048142;29;20180;-71
2021/01/01 00:23:16;;;;;;;98.80;58.50;;;2.30;92.40;;;;;;2056611;28;20062;-70
2021/01/01 00:24:16;;;;;;;95.25;57.42;;;2.30;92.40;;;;;;2056780;28;20110;-69
2021/01/01 00:25:17;;;;;;;95.60;57.55;;;2.30;92.40;;;;;;2063936;28;20117;-70
2021/01/01 00:26:18;;;;;;;95.40;56.85;;;2.30;92.40;;;;;;2055770;28;20464;-70
2021/01/01 00:27:19;;;;;;;95.88;56.72;;;2.30;92.30;;;;;;2047979;29;20479;-70
2021/01/01 00:28:19;;;;;;;94.68;56.00;;;2.30;92.40;;;;;;2048284;29;20126;-71
2021/01/01 00:29:21;;;;;;;93.60;57.15;;;2.30;92.40;;;;;;2049593;28;20043;-72
2021/01/01 00:30:22;;;;;;;104.55;59.20;;;2.30;92.30;;;;;;2049603;28;20047;-71
2021/01/01 00:31:24;;;;;;;111.20;63.70;;;2.30;92.30;;;;;;2057157;28;20037;-71
2021/01/01 00:32:25;;;;;;;114.25;65.38;;;2.30;92.30;;;;;;2057257;28;20105;-71
2021/01/01 00:33:26;;;;;;;103.07;61.15;;;2.30;92.20;;;;;;2056575;28;20549;-71
2021/01/01 00:34:27;;;;;;;102.15;60.15;;;2.30;92.30;;;;;;2056419;28;20037;-70
2021/01/01 00:35:27;;;;;;;99.07;58.95;;;2.30;92.40;;;;;;2056525;28;20494;-70
2021/01/01 00:36:28;;;;;;;99.05;58.03;;;2.30;92.50;;;;;;2056777;28;20121;-71
2021/01/01 00:37:29;;;;;;;102.03;60.10;;;2.30;92.40;;;;;;2056581;28;20031;-70
2021/01/01 00:38:30;;;;;;;102.30;59.65;;;2.30;92.40;;;;;;2055792;28;20058;-71
2021/01/01 00:39:30;;;;;;;100.80;60.17;;;2.30;92.30;;;;;;2056538;28;20022;-71
2021/01/01 00:40:31;;;;;;;100.65;59.53;;;2.30;92.30;;;;;;2063298;28;20027;-71
2021/01/01 00:41:35;;;;;;;95.55;57.05;;;2.30;92.30;;;;;;2063799;28;20165;-71
2021/01/01 00:42:37;;;;;;;106.35;60.97;;;2.30;92.30;;;;;;2056447;28;20056;-72
2021/01/01 00:43:37;;;;;;;95.70;56.70;;;2.20;92.20;;;;;;2056380;28;20034;-72
2021/01/01 00:44:39;;;;;;;93.05;55.38;;;2.30;92.20;;;;;;2055052;28;20402;-74
2021/01/01 00:45:40;;;;;;;92.75;55.90;;;2.30;92.20;;;;;;2047717;29;20030;-73
2021/01/01 00:46:40;;;;;;;91.43;53.28;;;2.30;92.40;;;;;;2039511;29;20046;-74
2021/01/01 00:47:46;;;;;;;87.43;52.20;;;2.30;92.20;;;;;;2047839;29;20487;-73
2021/01/01 00:48:48;;;;;;;88.35;52.65;;;2.30;92.10;;;;;;2048298;28;20039;-74
2021/01/01 00:49:49;;;;;;;87.32;51.67;;;2.30;92.10;;;;;;2048510;29;20027;-73
2021/01/01 00:50:50;;;;;;;86.47;52.78;;;2.30;92.00;;;;;;2048837;29;20137;-74
2021/01/01 00:51:50;;;;;;;83.65;50.40;;;2.30;92.00;;;;;;2048298;29;20105;-73
2021/01/01 00:52:51;;;;;;;90.63;54.00;;;2.40;92.00;;;;;;2048089;28;20019;-73
2021/01/01 00:53:52;;;;;;;91.18;53.85;;;2.30;91.90;;;;;;2056245;28;20018;-74
2021/01/01 00:54:52;;;;;;;91.05;54.47;;;2.40;91.90;;;;;;2048530;29;20031;-72
2021/01/01 00:55:53;;;;;;;89.40;52.90;;;2.40;91.90;;;;;;2048500;29;20030;-72
2021/01/01 00:56:53;;;;;;;87.13;52.67;;;2.30;91.80;;;;;;2056177;28;20054;-74
2021/01/01 00:57:54;;;;;;;85.60;51.42;;;2.30;91.80;;;;;;2056576;28;20019;-72
2021/01/01 00:58:57;;;;;;;91.30;52.78;;;2.30;91.80;;;;;;2056657;28;20015;-71
2021/01/01 00:59:58;;;;;;;88.65;52.58;;;2.30;91.70;;;;;;2056010;28;20050;-72
2021/01/01 01:00:59;;;;;;;89.05;53.40;;;2.30;91.70;;;;;;2049108;28;20110;-71
2021/01/01 01:02:00;;;;;;;92.65;55.05;;;2.30;91.70;;;;;;2048578;29;20038;-76
2021/01/01 01:03:00;;;;;;;93.20;55.85;;;2.20;91.80;;;;;;2048386;29;20039;-71
2021/01/01 01:04:01;;;;;;;93.13;55.95;;;2.20;91.90;;;;;;2048219;29;20066;-76
2021/01/01 01:05:03;;;;;;;99.00;59.20;;;2.20;92.00;;;;;;2048418;28;20163;-75
2021/01/01 01:06:04;;;;;;;92.88;56.33;;;2.20;92.00;;;;;;2056640;28;20053;-75
2021/01/01 01:07:04;;;;;;;94.85;57.13;;;2.20;91.90;;;;;;2049246;28;20086;-75
2021/01/01 01:08:05;;;;;;;96.65;57.60;;;2.10;92.00;;;;;;2049390;28;20479;-72
2021/01/01 01:09:06;;;;;;;100.65;58.72;;;2.10;92.10;;;;;;2049368;29;20034;-73
2021/01/01 01:10:07;;;;;;;99.38;57.13;;;2.10;92.10;;;;;;2049512;28;20151;-73
2021/01/01 01:11:08;;;;;;;91.28;53.85;;;2.10;92.10;;;;;;2049540;28;20091;-73
2021/01/01 01:12:09;;;;;;;90.75;52.72;;;2.10;92.20;;;;;;2049649;29;20023;-76
2021/01/01 01:13:10;;;;;;;94.35;56.25;;;2.10;92.20;;;;;;2049308;28;20065;-75
2021/01/01 01:14:10;;;;;;;95.47;54.72;;;2.20;92.30;;;;;;2049307;29;20050;-73
2021/01/01 01:15:12;;;;;;;90.45;53.17;;;2.20;92.30;;;;;;2049301;29;20035;-73
2021/01/01 01:16:18;;;;;;;88.07;52.47;;;2.20;92.60;;;;;;2048744;29;20402;-74
2021/01/01 01:17:19;;;;;;;84.40;50.47;;;2.20;92.20;;;;;;2048964;29;20031;-73
2021/01/01 01:18:20;;;;;;;86.70;52.58;;;2.20;92.10;;;;;;2056959;28;20031;-73
2021/01/01 01:19:20;;;;;;;82.80;49.65;;;2.30;92.10;;;;;;2048937;29;20023;-74
2021/01/01 01:20:21;;;;;;;82.47;50.08;;;2.30;92.00;;;;;;2044044;29;20031;-74
2021/01/01 01:21:22;;;;;;;83.55;49.60;;;2.30;92.10;;;;;;2054299;29;20046;-73
2021/01/01 01:22:23;;;;;;;82.72;49.90;;;2.30;91.90;;;;;;2051477;28;20471;-74
2021/01/01 01:23:25;;;;;;;86.07;50.10;;;2.30;91.90;;;;;;2059088;28;20134;-73
2021/01/01 01:24:26;;;;;;;81.40;49.28;;;2.30;91.90;;;;;;2059287;28;20027;-76
2021/01/01 01:25:26;;;;;;;88.50;51.92;;;2.30;91.80;;;;;;2050658;28;20023;-74
2021/01/01 01:26:27;;;;;;;88.65;50.72;;;2.30;91.80;;;;;;2049550;29;20109;-73
2021/01/01 01:27:28;;;;;;;84.70;51.03;;;2.30;91.70;;;;;;2049183;28;20055;-73
2021/01/01 01:28:28;;;;;;;81.78;48.28;;;2.40;91.70;;;;;;2049693;28;20395;-73
2021/01/01 01:29:29;;;;;;;94.07;53.58;;;2.30;91.70;;;;;;2049560;28;20035;-74
2021/01/01 01:30:30;;;;;;;85.93;50.50;;;2.30;91.80;;;;;;2049564;29;20023;-73
2021/01/01 01:31:30;;;;;;;83.22;49.20;;;2.40;91.80;;;;;;2049534;28;20035;-73
2021/01/01 01:32:31;;;;;;;83.43;48.78;;;2.30;91.80;;;;;;2049418;28;20038;-75
2021/01/01 01:33:32;;;;;;;81.13;48.80;;;2.40;91.80;;;;;;2049469;29;20114;-75
2021/01/01 01:34:33;;;;;;;72.30;44.92;;;2.40;91.70;;;;;;2048691;29;20130;-75
2021/01/01 01:35:34;;;;;;;74.25;44.80;;;2.40;91.70;;;;;;2048659;29;20035;-75
2021/01/01 01:36:35;;;;;;;73.53;43.70;;;2.40;91.70;;;;;;2049246;28;20035;-74
2021/01/01 01:37:38;;;;;;;70.00;43.15;;;2.40;91.70;;;;;;2049211;28;20023;-74
2021/01/01 01:38:39;;;;;;;73.55;43.58;;;2.40;91.60;;;;;;2049227;28;20077;-74
2021/01/01 01:39:39;;;;;;;69.10;42.15;;;2.40;91.50;;;;;;2049216;28;20093;-74
2021/01/01 01:40:40;;;;;;;70.63;42.60;;;2.40;91.50;;;;;;2049261;28;20027;-75
2021/01/01 01:41:41;;;;;;;66.32;41.65;;;2.40;91.50;;;;;;2049249;28;20202;-74
2021/01/01 01:42:41;;;;;;;71.95;42.60;;;2.50;91.50;;;;;;2049456;29;20031;-74
2021/01/01 01:43:42;;;;;;;67.00;41.80;;;2.50;91.40;;;;;;2048758;29;20047;-74
2021/01/01 01:44:43;;;;;;;64.78;40.78;;;2.50;91.40;;;;;;2048661;29;20607;-74
2021/01/01 01:45:43;;;;;;;66.88;40.47;;;2.50;91.30;;;;;;2049316;28;20039;-74
2021/01/01 01:46:45;;;;;;;69.03;41.35;;;2.50;91.30;;;;;;2049269;29;20027;-74
2021/01/01 01:47:47;;;;;;;67.50;41.03;;;2.50;91.20;;;;;;2049205;28;20089;-74
2021/01/01 01:48:48;;;;;;;63.53;38.83;;;2.50;91.20;;;;;;2056622;28;20026;-74
2021/01/01 01:49:49;;;;;;;67.05;40.75;;;2.50;91.10;;;;;;2056464;28;20023;-74
2021/01/01 01:50:49;;;;;;;69.88;42.10;;;2.50;91.10;;;;;;2049113;28;20039;-74
2021/01/01 01:51:52;;;;;;;64.85;40.10;;;2.50;91.10;;;;;;2049097;28;20463;-74
2021/01/01 01:52:53;;;;;;;68.95;42.00;;;2.50;91.10;;;;;;2049170;28;20154;-75
2021/01/01 01:53:54;;;;;;;65.20;40.15;;;2.50;91.10;;;;;;2049112;28;20482;-74
2021/01/01 01:54:57;;;;;;;69.78;41.83;;;2.50;91.40;;;;;;2040463;29;20028;-74
2021/01/01 01:55:59;;;;;;;65.97;39.78;;;2.50;91.10;;;;;;2040689;29;20380;-75
2021/01/01 01:56:59;;;;;;;73.55;43.90;;;2.50;91.10;;;;;;2048530;29;20035;-73
2021/01/01 01:58:01;;;;;;;74.72;43.13;;;2.50;91.10;;;;;;2048411;29;20054;-73
2021/01/01 01:59:02;;;;;;;73.10;43.58;;;2.50;91.10;;;;;;2049050;28;20031;-74
2021/01/01 02:00:12;;;;;;;71.40;42.30;;;2.50;91.00;;;;;;2049160;28;20034;-73
2021/01/01 02:01:13;;;;;;;66.80;41.15;;;2.50;91.00;;;;;;2049138;28;20027;-74
2021/01/01 02:02:14;;;;;;;69.07;41.50;;;2.50;91.10;;;;;;2049166;28;20494;-75
2021/01/01 02:03:16;;;;;;;67.25;41.25;;;2.50;91.10;;;;;;2048798;28;20101;-74
2021/01/01 02:04:16;;;;;;;67.80;41.47;;;2.60;91.20;;;;;;2048646;28;20521;-72
2021/01/01 02:05:18;;;;;;;69.13;40.10;;;2.50;91.10;;;;;;2048995;29;20074;-73
2021/01/01 02:06:19;;;;;;;75.07;44.38;;;2.50;91.10;;;;;;2049085;28;20038;-74
2021/01/01 02:07:19;;;;;;;71.20;41.60;;;2.50;91.10;;;;;;2048994;28;20066;-75
2021/01/01 02:08:21;;;;;;;67.15;40.90;;;2.60;91.20;;;;;;2049030;29;20031;-75
2021/01/01 02:09:21;;;;;;;70.22;40.60;;;2.60;91.20;;;;;;2056683;28;20450;-75
2021/01/01 02:10:22;;;;;;;71.57;43.60;;;2.60;91.20;;;;;;2056611;28;20043;-75
2021/01/01 02:11:23;;;;;;;70.53;41.20;;;2.60;91.20;;;;;;2048943;29;20031;-74
2021/01/01 02:12:24;;;;;;;69.45;41.40;;;2.60;91.20;;;;;;2049006;28;20529;-76
2021/01/01 02:13:26;;;;;;;70.65;42.60;;;2.60;91.20;;;;;;2049134;28;20101;-72
2021/01/01 02:14:27;;;;;;;74.05;42.33;;;2.60;91.30;;;;;;2048979;28;20118;-74
2021/01/01 02:15:30;;;;;;;68.90;41.05;;;2.60;91.30;;;;;;2049226;28;20431;-73
2021/01/01 02:16:34;;;;;;;68.15;39.92;;;2.60;91.30;;;;;;2049040;28;20051;-73
2021/01/01 02:17:34;;;;;;;66.30;40.22;;;2.60;91.30;;;;;;2048001;29;20414;-73
2021/01/01 02:18:36;;;;;;;66.68;39.90;;;2.60;91.30;;;;;;2048134;28;20079;-72
2021/01/01 02:19:37;;;;;;;65.40;39.05;;;2.60;91.30;;;;;;2049500;28;20055;-73
2021/01/01 02:20:37;;;;;;;61.88;37.85;;;2.60;91.30;;;;;;2049478;28;20023;-73
2021/01/01 02:21:41;;;;;;;62.42;36.72;;;2.60;91.10;;;;;;2050728;28;20074;-75
2021/01/01 02:22:42;;;;;;;61.38;36.70;;;2.60;91.00;;;;;;2058103;28;20109;-74
2021/01/01 02:23:47;;;;;;;59.65;36.78;;;2.60;91.00;;;;;;2057983;28;20022;-74
2021/01/01 02:24:47;;;;;;;66.88;38.22;;;2.60;91.00;;;;;;2048722;29;20086;-73
2021/01/01 02:25:48;;;;;;;62.78;36.92;;;2.60;91.00;;;;;;2048949;29;20524;-74
2021/01/01 02:26:49;;;;;;;62.67;37.42;;;2.60;91.00;;;;;;2049111;29;20031;-73
2021/01/01 02:27:49;;;;;;;59.15;36.58;;;2.60;91.10;;;;;;2049555;29;20031;-73
2021/01/01 02:28:50;;;;;;;62.72;36.80;;;2.60;91.10;;;;;;2049809;28;20027;-72
2021/01/01 02:29:51;;;;;;;60.70;36.85;;;2.60;91.10;;;;;;2056625;28;20069;-73
2021/01/01 02:30:51;;;;;;;63.05;37.25;;;2.60;91.10;;;;;;2057219;28;20045;-73
2021/01/01 02:31:52;;;;;;;61.10;37.42;;;2.60;91.10;;;;;;2049746;29;20469;-72
2021/01/01 02:32:53;;;;;;;61.13;36.00;;;2.50;91.10;;;;;;2049947;28;20028;-74
2021/01/01 02:33:53;;;;;;;61.08;36.10;;;2.50;91.20;;;;;;2057025;28;20402;-73
2021/01/01 02:34:54;;;;;;;57.35;34.90;;;2.50;91.20;;;;;;2057274;28;20031;-72
2021/01/01 02:35:55;;;;;;;59.53;35.13;;;2.50;91.20;;;;;;2049847;28;20411;-73
2021/01/01 02:36:55;;;;;;;55.50;33.85;;;2.60;91.10;;;;;;2049421;29;20030;-72
2021/01/01 02:37:56;;;;;;;59.92;35.90;;;2.60;91.10;;;;;;2049957;29;20034;-72
2021/01/01 02:38:57;;;;;;;56.75;34.80;;;2.60;91.10;;;;;;2057022;28;20425;-74
2021/01/01 02:39:58;;;;;;;55.28;33.10;;;2.60;91.10;;;;;;2057420;28;20026;-73
2021/01/01 02:40:59;;;;;;;54.25;33.60;;;2.60;91.10;;;;;;2050875;29;20034;-74
2021/01/01 02:41:59;;;;;;;54.30;33.33;;;2.60;91.00;;;;;;2052524;29;20029;-72
2021/01/01 02:43:01;;;;;;;54.70;33.20;;;2.60;91.10;;;;;;2053086;28;20399;-74
2021/01/01 02:44:01;;;;;;;52.30;32.10;;;2.60;91.10;;;;;;2050708;28;20024;-72
2021/01/01 02:45:03;;;;;;;50.00;31.88;;;2.60;91.00;;;;;;2051058;29;20436;-72
2021/01/01 02:46:04;;;;;;;51.42;31.60;;;2.60;91.00;;;;;;2060814;28;20035;-73
2021/01/01 02:47:05;;;;;;;51.25;30.67;;;2.60;91.00;;;;;;2060888;28;20035;-73
2021/01/01 02:48:16;;;;;;;53.03;32.53;;;2.60;91.00;;;;;;2058685;28;20096;-73
2021/01/01 02:49:17;;;;;;;50.72;30.67;;;2.70;91.00;;;;;;2056884;28;20086;-73
2021/01/01 02:50:18;;;;;;;49.75;30.23;;;2.60;91.00;;;;;;2049782;29;20062;-73
2021/01/01 02:51:18;;;;;;;52.90;32.42;;;2.70;91.00;;;;;;2041657;29;20034;-73
2021/01/01 02:52:19;;;;;;;55.58;33.08;;;2.70;90.90;;;;;;2049614;29;20567;-74
2021/01/01 02:53:20;;;;;;;52.17;31.45;;;2.70;90.90;;;;;;2049750;29;20038;-73
2021/01/01 02:54:20;;;;;;;53.22;32.30;;;2.70;90.90;;;;;;2049356;29;20126;-74
2021/01/01 02:55:21;;;;;;;54.47;32.15;;;2.70;90.90;;;;;;2057433;28;20042;-73
2021/01/01 02:56:22;;;;;;;49.45;30.58;;;2.70;90.80;;;;;;2057501;28;20393;-72
2021/01/01 02:57:22;;;;;;;53.25;32.50;;;2.70;90.80;;;;;;2057461;28;20117;-73
2021/01/01 02:58:23;;;;;;;54.97;33.45;;;2.70;90.80;;;;;;2057119;28;20517;-74
2021/01/01 02:59:24;;;;;;;55.05;32.13;;;2.70;90.70;;;;;;2049191;29;20035;-73
2021/01/01 03:00:25;;;;;;;50.47;30.55;;;2.70;90.70;;;;;;2048659;29;20028;-73
2021/01/01 03:01:26;;;;;;;55.72;31.92;;;2.70;90.70;;;;;;2049421;28;20388;-72
2021/01/01 03:02:27;;;;;;;53.05;32.45;;;2.70;90.70;;;;;;2049274;28;20038;-72
2021/01/01 03:03:28;;;;;;;52.25;31.98;;;2.60;90.60;;;;;;2049778;29;20023;-73
2021/01/01 03:04:28;;;;;;;51.65;31.48;;;2.60;90.60;;;;;;2050218;29;20031;-74
2021/01/01 03:05:29;;;;;;;53.08;31.77;;;2.60;90.60;;;;;;2049711;29;20035;-74
2021/01/01 03:06:30;;;;;;;52.35;30.48;;;2.60;90.60;;;;;;2048263;28;20086;-73
2021/01/01 03:07:30;;;;;;;53.78;31.75;;;2.60;90.60;;;;;;2048601;29;20045;-73
2021/01/01 03:08:31;;;;;;;54.75;32.38;;;2.60;90.50;;;;;;2049216;28;20079;-73
2021/01/01 03:09:32;;;;;;;50.78;31.20;;;2.60;90.50;;;;;;2049090;29;20061;-72
2021/01/01 03:10:33;;;;;;;51.08;30.98;;;2.60;90.50;;;;;;2048870;28;20074;-73
2021/01/01 03:11:33;;;;;;;55.03;32.05;;;2.60;90.50;;;;;;2048486;29;20659;-73
2021/01/01 03:12:34;;;;;;;49.50;30.60;;;2.50;90.60;;;;;;2048629;29;20511;-73
2021/01/01 03:13:35;;;;;;;53.75;31.38;;;2.50;90.60;;;;;;2049665;28;20475;-72
2021/01/01 03:14:35;;;;;;;51.22;30.80;;;2.50;90.60;;;;;;2049241;29;20046;-72
2021/01/01 03:15:36;;;;;;;51.85;32.15;;;2.50;90.60;;;;;;2049219;28;20058;-74
2021/01/01 03:16:37;;;;;;;51.00;31.58;;;2.50;90.60;;;;;;2048705;29;20038;-73
2021/01/01 03:17:37;;;;;;;53.10;31.80;;;2.50;90.60;;;;;;2049451;28;20035;-74
2021/01/01 03:18:38;;;;;;;55.13;32.25;;;2.50;90.60;;;;;;2049126;29;20054;-74
2021/01/01 03:19:39;;;;;;;49.88;31.00;;;2.50;90.60;;;;;;2048890;28;20115;-73
2021/01/01 03:20:39;;;;;;;52.10;31.42;;;2.50;90.50;;;;;;2048353;29;20031;-72
2021/01/01 03:21:40;;;;;;;49.22;29.88;;;2.50;90.50;;;;;;2041122;29;20052;-75
2021/01/01 03:22:40;;;;;;;52.88;31.48;;;2.50;90.50;;;;;;2041255;29;20036;-72
2021/01/01 03:23:41;;;;;;;50.97;31.30;;;2.50;90.40;;;;;;2049627;29;20023;-73
2021/01/01 03:24:42;;;;;;;53.05;31.00;;;2.50;90.40;;;;;;2048636;29;20032;-74
2021/01/01 03:25:42;;;;;;;52.75;32.05;;;2.50;90.40;;;;;;2048547;29;20047;-73
2021/01/01 03:26:43;;;;;;;52.88;31.70;;;2.50;90.30;;;;;;2048804;28;20542;-73
2021/01/01 03:27:44;;;;;;;52.35;30.55;;;2.50;90.30;;;;;;2048986;28;20028;-74
2021/01/01 03:28:44;;;;;;;50.45;30.55;;;2.50;90.30;;;;;;2049328;28;20038;-73
2021/01/01 03:29:45;;;;;;;52.20;30.63;;;2.50;90.40;;;;;;2048999;28;20035;-74
2021/01/01 03:30:46;;;;;;;54.95;32.40;;;2.50;90.40;;;;;;2048126;28;20062;-73
2021/01/01 03:31:46;;;;;;;52.63;31.05;;;2.50;90.40;;;;;;2048918;29;20043;-74
2021/01/01 03:32:50;;;;;;;52.45;31.98;;;2.50;90.40;;;;;;2049252;29;20035;-73
2021/01/01 03:33:50;;;;;;;53.08;31.33;;;2.50;90.50;;;;;;2049336;28;20102;-73
2021/01/01 03:34:53;;;;;;;52.53;30.65;;;2.50;90.50;;;;;;2049172;29;20561;-74
2021/01/01 03:35:54;;;;;;;49.10;29.75;;;2.50;90.50;;;;;;2049332;28;20158;-73
2021/01/01 03:36:55;;;;;;;55.88;32.88;;;2.50;90.50;;;;;;2049224;29;20438;-73
2021/01/01 03:37:56;;;;;;;54.90;31.92;;;2.50;90.40;;;;;;2048675;29;20075;-74
2021/01/01 03:38:56;;;;;;;56.92;33.40;;;2.50;90.40;;;;;;2041048;29;20499;-73
2021/01/01 03:39:57;;;;;;;53.00;32.53;;;2.50;90.50;;;;;;2039869;29;20543;-74
2021/01/01 03:40:58;;;;;;;56.00;33.60;;;2.50;90.40;;;;;;2049330;29;20402;-73
2021/01/01 03:41:59;;;;;;;50.95;31.15;;;2.50;90.80;;;;;;2050105;28;20029;-75
2021/01/01 03:42:59;;;;;;;54.45;32.92;;;2.50;90.40;;;;;;2050220;28;20479;-73
2021/01/01 03:44:00;;;;;;;54.50;32.67;;;2.60;90.60;;;;;;2049926;28;20471;-74
2021/01/01 03:45:01;;;;;;;55.10;31.02;;;2.60;90.50;;;;;;2056627;28;20027;-75
2021/01/01 03:46:02;;;;;;;52.45;32.33;;;2.60;90.50;;;;;;2049126;29;20098;-73
2021/01/01 03:47:05;;;;;;;57.55;32.83;;;2.60;90.40;;;;;;2049375;29;20391;-73
2021/01/01 03:48:07;;;;;;;55.72;32.47;;;2.60;90.40;;;;;;2056747;28;20042;-73
2021/01/01 03:49:07;;;;;;;53.30;32.42;;;2.60;90.40;;;;;;2049778;29;20024;-73
2021/01/01 03:50:09;;;;;;;54.45;32.72;;;2.70;90.40;;;;;;2049057;28;20031;-73
2021/01/01 03:51:09;;;;;;;53.83;31.85;;;2.60;90.40;;;;;;2041126;29;20563;-74
2021/01/01 03:52:10;;;;;;;49.75;30.30;;;2.70;90.40;;;;;;2040418;29;20036;-74
2021/01/01 03:53:11;;;;;;;52.80;31.88;;;2.70;90.40;;;;;;2048192;29;20027;-74
2021/01/01 03:54:11;;;;;;;50.42;30.60;;;2.70;90.40;;;;;;2048880;28;20487;-74
2021/01/01 03:55:12;;;;;;;49.70;30.10;;;2.70;90.40;;;;;;2048659;28;20114;-73
2021/01/01 03:56:13;;;;;;;48.00;29.48;;;2.70;90.40;;;;;;2055723;28;20037;-73
2021/01/01 03:57:13;;;;;;;55.40;33.13;;;2.70;90.40;;;;;;2048109;29;20023;-73
2021/01/01 03:58:14;;;;;;;53.85;32.28;;;2.70;90.40;;;;;;2048142;29;20038;-74
2021/01/01 03:59:15;;;;;;;53.67;31.90;;;2.70;90.40;;;;;;2048868;29;20498;-74
2021/01/01 04:00:16;;;;;;;56.20;32.55;;;2.70;90.50;;;;;;2047811;29;20027;-74
2021/01/01 04:01:17;;;;;;;55.53;32.85;;;2.70;90.50;;;;;;2048089;29;20037;-75
2021/01/01 04:02:17;;;;;;;55.95;34.08;;;2.70;90.50;;;;;;2048694;28;20030;-73
2021/01/01 04:03:18;;;;;;;54.90;32.70;;;2.70;90.40;;;;;;2048569;29;20105;-74
2021/01/01 04:04:19;;;;;;;55.08;32.53;;;2.70;90.60;;;;;;2048683;28;20055;-73
2021/01/01 04:05:19;;;;;;;55.83;32.83;;;2.70;90.60;;;;;;2048624;29;20019;-74
2021/01/01 04:06:20;;;;;;;61.30;34.95;;;2.70;90.60;;;;;;2049706;28;20035;-74
2021/01/01 04:07:21;;;;;;;58.97;33.53;;;2.70;90.80;;;;;;2049729;29;20442;-73
2021/01/01 04:08:21;;;;;;;59.63;34.05;;;2.70;90.90;;;;;;2049110;29;20106;-73
2021/01/01 04:09:22;;;;;;;57.95;33.58;;;2.70;90.80;;;;;;2049129;29;20027;-74
2021/01/01 04:10:23;;;;;;;58.80;34.38;;;2.70;90.80;;;;;;2048843;29;20491;-74
2021/01/01 04:11:23;;;;;;;57.65;33.10;;;2.70;90.90;;;;;;2047968;29;20068;-73
2021/01/01 04:12:24;;;;;;;52.17;31.95;;;2.70;91.00;;;;;;2048142;29;20035;-73
2021/01/01 04:13:25;;;;;;;56.75;33.22;;;2.70;91.00;;;;;;2048668;29;20102;-74
2021/01/01 04:14:25;;;;;;;55.22;32.72;;;2.70;91.00;;;;;;2047949;29;20134;-74
2021/01/01 04:15:26;;;;;;;59.42;34.75;;;2.70;91.00;;;;;;2048192;29;20031;-75
2021/01/01 04:16:27;;;;;;;58.88;33.80;;;2.70;91.10;;;;;;2055006;28;20038;-75
2021/01/01 04:17:27;;;;;;;56.88;34.15;;;2.70;91.20;;;;;;2056606;28;20030;-74
2021/01/01 04:18:28;;;;;;;59.58;33.97;;;2.60;91.40;;;;;;2056536;28;20023;-75
2021/01/01 04:19:29;;;;;;;58.30;34.42;;;2.60;91.50;;;;;;2049333;29;20081;-74
2021/01/01 04:20:30;;;;;;;57.35;34.20;;;2.60;91.50;;;;;;2057579;28;20075;-75
2021/01/01 04:21:31;;;;;;;60.70;34.92;;;2.60;91.70;;;;;;2058143;28;20031;-74
2021/01/01 04:22:32;;;;;;;60.13;35.13;;;2.60;91.80;;;;;;2057973;28;20446;-73
2021/01/01 04:23:34;;;;;;;56.83;33.40;;;2.60;91.80;;;;;;2058181;28;20047;-74
2021/01/01 04:24:35;;;;;;;56.38;33.63;;;2.60;91.80;;;;;;2057999;28;20031;-74
2021/01/01 04:25:36;;;;;;;57.38;33.70;;;2.60;92.00;;;;;;2057126;28;20067;-74
2021/01/01 04:26:36;;;;;;;60.60;35.17;;;2.60;92.00;;;;;;2057317;28;20039;-73
2021/01/01 04:27:37;;;;;;;52.95;31.95;;;2.50;92.10;;;;;;2057878;28;20106;-73
2021/01/01 04:28:38;;;;;;;54.92;32.47;;;2.50;92.10;;;;;;2057740;28;20499;-73
2021/01/01 04:29:38;;;;;;;62.15;35.28;;;2.50;92.10;;;;;;2058103;28;20027;-74
2021/01/01 04:30:39;;;;;;;56.97;33.13;;;2.50;92.30;;;;;;2057378;28;20104;-73
2021/01/01 04:31:40;;;;;;;55.88;33.35;;;2.50;92.40;;;;;;2057571;28;20675;-73
2021/01/01 04:32:40;;;;;;;53.97;31.95;;;2.50;92.50;;;;;;2057648;28;20033;-74
2021/01/01 04:33:41;;;;;;;53.80;31.65;;;2.50;92.60;;;;;;2058976;28;20115;-74
2021/01/01 04:34:42;;;;;;;53.42;32.25;;;2.50;92.70;;;;;;2058156;28;20414;-73
2021/01/01 04:35:42;;;;;;;55.60;33.22;;;2.40;92.70;;;;;;2056526;28;20403;-73
2021/01/01 04:36:43;;;;;;;61.58;35.33;;;2.40;92.80;;;;;;2056793;28;20680;-73
2021/01/01 04:37:44;;;;;;;59.63;35.33;;;2.40;93.00;;;;;;2057045;28;20029;-73
2021/01/01 04:38:44;;;;;;;59.10;34.45;;;2.40;93.10;;;;;;2057053;28;20034;-75
2021/01/01 04:39:46;;;;;;;54.38;32.97;;;2.30;93.10;;;;;;2056809;28;20031;-74
2021/01/01 04:40:47;;;;;;;57.38;33.10;;;2.30;93.20;;;;;;2057827;28;20027;-74
2021/01/01 04:41:53;;;;;;;56.78;33.90;;;2.30;93.30;;;;;;2056988;28;20046;-73
2021/01/01 04:42:53;;;;;;;56.20;33.38;;;2.30;93.50;;;;;;2056899;28;20071;-73
2021/01/01 04:43:54;;;;;;;57.40;34.50;;;2.30;93.50;;;;;;2056754;28;20398;-73
2021/01/01 04:44:56;;;;;;;56.95;34.20;;;2.30;93.60;;;;;;2057438;28;20545;-73
2021/01/01 04:45:57;;;;;;;58.45;34.78;;;2.30;94.00;;;;;;2057354;28;20110;-76
2021/01/01 04:47:01;;;;;;;59.03;35.03;;;2.30;93.80;;;;;;2057084;28;20029;-73
2021/01/01 04:48:02;;;;;;;57.67;33.55;;;2.20;93.90;;;;;;2057286;28;20057;-72
2021/01/01 04:49:03;;;;;;;65.70;37.70;;;2.20;94.00;;;;;;2057000;28;20019;-72
2021/01/01 04:50:04;;;;;;;57.63;34.47;;;2.20;94.10;;;;;;2056599;28;20022;-74
2021/01/01 04:51:07;;;;;;;59.67;35.67;;;2.20;94.20;;;;;;2056600;28;20101;-73
2021/01/01 04:52:08;;;;;;;61.03;35.53;;;2.20;94.40;;;;;;2056605;28;20386;-72
2021/01/01 04:53:10;;;;;;;58.22;35.22;;;2.20;94.50;;;;;;2057367;28;20360;-73
2021/01/01 04:54:11;;;;;;;58.60;34.90;;;2.10;94.50;;;;;;2057347;28;20029;-73
2021/01/01 04:55:13;;;;;;;62.25;37.05;;;2.20;94.50;;;;;;2057463;28;20472;-73
2021/01/01 04:56:13;;;;;;;59.60;35.03;;;2.10;94.50;;;;;;2057089;28;20069;-73
2021/01/01 04:57:14;;;;;;;59.55;35.72;;;2.10;94.60;;;;;;2057116;28;20034;-73
2021/01/01 04:58:15;;;;;;;58.35;34.95;;;2.10;94.70;;;;;;2058135;28;20034;-74
2021/01/01 04:59:17;;;;;;;61.80;36.30;;;2.20;94.80;;;;;;2060152;28;20462;-74
2021/01/01 05:00:18;;;;;;;61.42;35.47;;;2.10;94.90;;;;;;2060115;28;20049;-73
2021/01/01 05:01:24;;;;;;;59.85;35.42;;;2.10;95.00;;;;;;2051655;29;20023;-73
2021/01/01 05:02:24;;;;;;;59.50;36.28;;;2.10;95.00;;;;;;2052683;28;20031;-73
2021/01/01 05:03:26;;;;;;;67.03;37.33;;;2.10;95.10;;;;;;2059296;28;20077;-73
2021/01/01 05:04:27;;;;;;;63.17;36.70;;;2.10;95.00;;;;;;2058896;28;20065;-73
2021/01/01 05:05:28;;;;;;;65.20;38.33;;;2.10;95.00;;;;;;2059999;28;20019;-72
2021/01/01 05:06:30;;;;;;;66.15;37.95;;;2.20;95.00;;;;;;2058678;28;20038;-71
2021/01/01 05:07:30;;;;;;;64.20;37.97;;;2.10;95.00;;;;;;2060484;28;20027;-73
2021/01/01 05:08:32;;;;;;;63.17;37.30;;;2.10;95.10;;;;;;2057700;28;20509;-71
2021/01/01 05:09:33;;;;;;;61.80;36.38;;;2.10;95.20;;;;;;2049392;28;20107;-70
2021/01/01 05:10:34;;;;;;;62.47;35.13;;;2.10;95.30;;;;;;2056887;28;20061;-71
2021/01/01 05:11:35;;;;;;;61.40;35.95;;;2.10;95.30;;;;;;2057726;28;20042;-72
2021/01/01 05:12:36;;;;;;;61.95;37.00;;;2.20;95.30;;;;;;2056958;28;20489;-70
2021/01/01 05:13:36;;;;;;;59.35;35.45;;;2.20;95.30;;;;;;2056751;28;20066;-70